Time;durP1;ratioP1;P1;durP2;ratioP2;P2;SDS_P1;SDS_P2;PMS_P1;PMS_P2;Temp;Humidity;BMP_temperature;BMP_pressure;BME280_temperature;BME280_humidity;BME280_pressure;Samples;Min_cycle;Max_cycle;Signal;HPM_P1;HPM_P2
2021/06/06 00:01:54;;;;;;;;;;;;;;;15.55;66.41;98403.39;1776942;80;23994;-86
2021/06/06 00:04:22;;;;;;;;;;;;;;;15.58;66.46;98404.41;1758470;80;22082;-86
2021/06/06 00:06:48;;;;;;;;;;;;;;;15.61;66.51;98402.80;1762639;80;26905;-86
2021/06/06 00:09:16;;;;;;;;;;;;;;;15.62;66.50;98403.99;1774077;80;24708;-89
2021/06/06 00:11:44;;;;;;;;;;;;;;;15.63;66.49;98404.83;1770976;80;20376;-88
2021/06/06 00:14:12;;;;;;;;;;;;;;;15.60;66.47;98406.44;1771016;80;24604;-88
2021/06/06 00:16:39;;;;;;;;;;;;;;;15.59;66.47;98406.09;1771643;80;22061;-86
2021/06/06 00:19:11;;;;;;;;;;;;;;;15.55;66.46;98413.42;1775239;80;26064;-86
2021/06/06 00:21:38;;;;;;;;;;;;;;;15.52;66.48;98416.84;1722457;82;24513;-88
2021/06/06 00:24:05;;;;;;;;;;;;;;;15.43;66.49;98416.67;1722678;82;20529;-89
2021/06/06 00:26:32;;;;;;;;;;;;;;;15.38;66.49;98414.11;1700983;84;24688;-89
2021/06/06 00:28:58;;;;;;;;;;;;;;;15.31;66.52;98412.98;1703467;84;22260;-89
2021/06/06 00:31:24;;;;;;;;;;;;;;;15.14;66.53;98413.16;1670181;85;21913;-89
2021/06/06 00:33:51;;;;;;;;;;;;;;;15.10;66.62;98411.77;1643343;85;20270;-89
2021/06/06 00:36:18;;;;;;;;;;;;;;;14.98;66.68;98410.22;1733791;82;20534;-88
2021/06/06 00:38:44;;;;;;;;;;;;;;;14.87;66.72;98407.20;1734053;82;24213;-88
2021/06/06 00:41:11;;;;;;;;;;;;;;;14.80;66.76;98409.19;1727670;81;22110;-88
2021/06/06 00:43:37;;;;;;;;;;;;;;;14.70;66.85;98403.89;1734937;81;26031;-88
2021/06/06 00:46:03;;;;;;;;;;;;;;;14.61;66.95;98398.12;1729022;82;24524;-88
2021/06/06 00:48:30;;;;;;;;;;;;;;;14.53;67.03;98403.20;1729313;82;20476;-88
2021/06/06 00:50:57;;;;;;;;;;;;;;;14.45;67.10;98400.41;1737897;82;24519;-88
2021/06/06 00:53:34;;;;;;;;;;;;;;;14.41;67.17;98404.24;1735539;81;22142;-89
2021/06/06 00:56:01;;;;;;;;;;;;;;;14.35;67.26;98399.47;1728651;81;25967;-86
2021/06/06 00:58:30;;;;;;;;;;;;;;;14.35;67.33;98400.30;1728255;82;23965;-86
2021/06/06 01:00:58;;;;;;;;;;;;;;;14.43;67.42;98399.69;1691760;83;20170;-84
2021/06/06 01:03:43;;;;;;;;;;;;;;;14.55;67.50;98393.37;1728687;81;24485;-84
2021/06/06 01:06:11;;;;;;;;;;;;;;;14.62;67.52;98399.28;1727800;82;21568;-89
2021/06/06 01:08:39;;;;;;;;;;;;;;;14.65;67.54;98392.44;1727757;82;25985;-89
2021/06/06 01:11:07;;;;;;;;;;;;;;;14.67;67.56;98399.38;1726207;82;24603;-89
2021/06/06 01:13:38;;;;;;;;;;;;;;;14.67;67.56;98396.75;1726691;82;20566;-89
2021/06/06 01:16:08;;;;;;;;;;;;;;;14.66;67.59;98397.23;1727847;82;24664;-88
2021/06/06 01:18:35;;;;;;;;;;;;;;;14.65;67.62;98392.44;1726906;82;22770;-89
2021/06/06 01:21:13;;;;;;;;;;;;;;;14.63;67.68;98402.75;1731361;81;28075;-88
2021/06/06 01:23:40;;;;;;;;;;;;;;;14.50;67.66;98400.36;1728405;82;24607;-89
2021/06/06 01:26:11;;;;;;;;;;;;;;;14.35;67.66;98400.30;1755088;79;20231;-89
2021/06/06 01:28:45;;;;;;;;;;;;;;;14.22;67.69;98397.08;1768211;80;24622;-89
2021/06/06 01:31:12;;;;;;;;;;;;;;;14.11;67.70;98399.78;1776172;80;22010;-89
2021/06/06 01:33:41;;;;;;;;;;;;;;;14.01;67.76;98401.53;1768963;80;25967;-88
2021/06/06 01:36:11;;;;;;;;;;;;;;;13.95;67.83;98400.72;1769944;80;24610;-88
2021/06/06 01:38:45;;;;;;;;;;;;;;;13.99;67.93;98403.44;1767120;80;20475;-88
2021/06/06 01:41:18;;;;;;;;;;;;;;;14.09;67.99;98406.96;1765638;80;24573;-89
2021/06/06 01:43:51;;;;;;;;;;;;;;;14.16;68.06;98405.48;1768381;80;22042;-89
2021/06/06 01:46:19;;;;;;;;;;;;;;;14.16;68.10;98406.80;1762640;80;27846;-89
2021/06/06 01:48:58;;;;;;;;;;;;;;;14.08;68.09;98402.66;1772838;80;24452;-89
2021/06/06 01:51:29;;;;;;;;;;;;;;;14.05;68.07;98413.45;1767324;80;20559;-89
2021/06/06 01:53:57;;;;;;;;;;;;;;;14.00;68.06;98411.22;1769414;80;25406;-89
2021/06/06 01:56:24;;;;;;;;;;;;;;;13.98;68.03;98412.30;1768590;80;22027;-89
2021/06/06 01:58:54;;;;;;;;;;;;;;;13.94;68.06;98410.41;1764423;78;26146;-90
2021/06/06 02:01:22;;;;;;;;;;;;;;;13.81;68.09;98409.28;1764944;79;24399;-89
2021/06/06 02:03:49;;;;;;;;;;;;;;;13.70;68.16;98406.70;1763698;80;20461;-89
2021/06/06 02:06:17;;;;;;;;;;;;;;;13.74;68.20;98406.83;1765606;80;24691;-89
2021/06/06 02:08:45;;;;;;;;;;;;;;;13.77;68.29;98405.24;1736374;81;22186;-89
2021/06/06 02:11:16;;;;;;;;;;;;;;;13.78;68.34;98410.86;1760956;80;26768;-89
2021/06/06 02:13:44;;;;;;;;;;;;;;;13.80;68.37;98413.38;1766610;80;24457;-89
2021/06/06 02:16:12;;;;;;;;;;;;;;;13.78;68.42;98410.86;1768696;80;20204;-88
2021/06/06 02:18:38;;;;;;;;;;;;;;;13.66;68.43;98405.78;1703965;83;24614;-85
2021/06/06 02:21:04;;;;;;;;;;;;;;;13.56;68.49;98412.76;1772121;80;21958;-89
2021/06/06 02:23:32;;;;;;;;;;;;;;;13.55;68.57;98409.77;1775897;80;26039;-86
2021/06/06 02:26:18;;;;;;;;;;;;;;;13.63;68.65;98412.14;1771984;79;25066;-89
2021/06/06 02:28:56;;;;;;;;;;;;;;;13.69;68.72;98406.85;1773518;80;20450;-89
2021/06/06 02:31:24;;;;;;;;;;;;;;;13.67;68.75;98406.97;1779426;79;24577;-89
2021/06/06 02:34:04;;;;;;;;;;;;;;;13.53;68.81;98403.31;1773000;80;22034;-90
2021/06/06 02:36:36;;;;;;;;;;;;;;;13.40;68.81;98406.61;1757333;80;26385;-89
2021/06/06 02:39:11;;;;;;;;;;;;;;;13.30;68.81;98412.27;1770081;80;25261;-87
2021/06/06 02:41:42;;;;;;;;;;;;;;;13.23;68.85;98406.67;1778376;80;20314;-88
2021/06/06 02:44:12;;;;;;;;;;;;;;;13.23;68.96;98409.30;1748018;80;21493;-88
2021/06/06 02:46:41;;;;;;;;;;;;;;;13.38;69.04;98409.83;1770005;80;22795;-88
2021/06/06 02:49:29;;;;;;;;;;;;;;;13.49;69.12;98409.80;1768898;80;25964;-89
2021/06/06 02:52:07;;;;;;;;;;;;;;;13.55;69.18;98415.03;1770881;80;25382;-88
2021/06/06 02:54:41;;;;;;;;;;;;;;;13.36;69.18;98418.34;1774463;80;20241;-88
2021/06/06 02:57:09;;;;;;;;;;;;;;;13.15;69.18;98417.42;1771641;80;23957;-88
2021/06/06 02:59:37;;;;;;;;;;;;;;;13.06;69.20;98417.66;1771061;80;22089;-85
2021/06/06 03:02:06;;;;;;;;;;;;;;;13.12;69.25;98415.89;1772429;79;26863;-85
2021/06/06 03:04:34;;;;;;;;;;;;;;;13.21;69.31;98416.94;1771600;80;25025;-88
2021/06/06 03:07:02;;;;;;;;;;;;;;;13.27;69.34;98423.84;1771647;80;20318;-87
2021/06/06 03:09:29;;;;;;;;;;;;;;;13.33;69.39;98425.98;1772217;80;24695;-88
2021/06/06 03:11:57;;;;;;;;;;;;;;;13.41;69.43;98431.95;1773931;80;21993;-88
2021/06/06 03:14:28;;;;;;;;;;;;;;;13.46;69.49;98431.56;1767999;79;26782;-88
2021/06/06 03:17:01;;;;;;;;;;;;;;;13.49;69.51;98430.83;1772552;79;24498;-88
2021/06/06 03:19:28;;;;;;;;;;;;;;;13.55;69.52;98436.06;1772247;80;20305;-88
2021/06/06 03:21:55;;;;;;;;;;;;;;;13.57;69.56;98432.36;1771415;80;24767;-88
2021/06/06 03:24:32;;;;;;;;;;;;;;;13.61;69.56;98427.67;1769971;80;21963;-89
2021/06/06 03:27:02;;;;;;;;;;;;;;;13.63;69.59;98433.18;1748902;79;21186;-90
2021/06/06 03:29:30;;;;;;;;;;;;;;;13.73;69.65;98433.25;1772140;80;24517;-89
2021/06/06 03:31:58;;;;;;;;;;;;;;;13.79;69.68;98430.11;1771650;80;20162;-89
2021/06/06 03:34:24;;;;;;;;;;;;;;;13.87;69.73;98436.03;1772474;80;25300;-89
2021/06/06 03:36:50;;;;;;;;;;;;;;;13.89;69.76;98436.27;1770666;80;21991;-86
2021/06/06 03:39:26;;;;;;;;;;;;;;;13.90;69.77;98443.69;1750117;80;25946;-89
2021/06/06 03:41:49;;;;;;;;;;;;;;;14.06;69.81;98440.13;1774704;80;24605;-89
2021/06/06 03:44:15;;;;;;;;;;;;;;;14.23;69.86;98440.38;1773814;80;20260;-89
2021/06/06 03:46:41;;;;;;;;;;;;;;;14.29;69.90;98444.30;1766681;80;24536;-89
2021/06/06 03:49:08;;;;;;;;;;;;;;;14.40;69.92;98435.52;1773957;80;21982;-89
2021/06/06 03:51:40;;;;;;;;;;;;;;;14.55;69.95;98430.25;1770959;80;27505;-89
2021/06/06 03:54:10;;;;;;;;;;;;;;;14.65;69.96;98426.69;1769056;80;24801;-89
2021/06/06 03:56:34;;;;;;;;;;;;;;;14.76;69.96;98430.19;1772667;80;20230;-86
2021/06/06 03:59:00;;;;;;;;;;;;;;;14.79;69.95;98432.54;1767231;80;20324;-86
2021/06/06 04:01:39;;;;;;;;;;;;;;;14.88;69.94;98432.59;1772645;80;20283;-87
2021/06/06 04:04:14;;;;;;;;;;;;;;;15.01;69.97;98428.38;1773929;80;26087;-87
2021/06/06 04:06:40;;;;;;;;;;;;;;;15.12;69.96;98430.91;1768896;80;24598;-84
2021/06/06 04:09:07;;;;;;;;;;;;;;;15.38;70.00;98441.28;1771164;80;20253;-84
2021/06/06 04:11:34;;;;;;;;;;;;;;;15.59;69.95;98437.26;1770940;80;24548;-84
2021/06/06 04:14:00;;;;;;;;;;;;;;;15.73;69.91;98438.15;1769773;80;21982;-84
2021/06/06 04:16:26;;;;;;;;;;;;;;;15.86;69.85;98438.72;1771311;80;26176;-86
2021/06/06 04:18:54;;;;;;;;;;;;;;;15.88;69.74;98442.02;1752241;80;20420;-84
2021/06/06 04:21:22;;;;;;;;;;;;;;;15.81;69.62;98443.58;1770653;80;20243;-84
2021/06/06 04:23:48;;;;;;;;;;;;;;;15.81;69.53;98447.54;1771495;80;24761;-87
2021/06/06 04:26:14;;;;;;;;;;;;;;;15.75;69.45;98446.77;1772032;80;21862;-87
2021/06/06 04:28:40;;;;;;;;;;;;;;;15.72;69.41;98443.55;1774856;80;21051;-88
2021/06/06 04:31:08;;;;;;;;;;;;;;;15.73;69.38;98442.59;1774487;80;24422;-88
2021/06/06 04:33:37;;;;;;;;;;;;;;;15.89;69.40;98445.50;1771202;80;20526;-84
2021/06/06 04:36:05;;;;;;;;;;;;;;;16.10;69.41;98449.30;1777893;80;26462;-84
2021/06/06 04:38:32;;;;;;;;;;;;;;;16.22;69.43;98451.64;1770393;80;22028;-84
2021/06/06 04:40:59;;;;;;;;;;;;;;;16.30;69.41;98446.50;1773345;80;25943;-84
2021/06/06 04:43:25;;;;;;;;;;;;;;;16.24;69.37;98445.75;1755577;80;24508;-84
2021/06/06 04:45:52;;;;;;;;;;;;;;;16.19;69.30;98445.83;1770458;80;20185;-87
2021/06/06 04:48:20;;;;;;;;;;;;;;;16.12;69.28;98447.36;1778504;80;24609;-88
2021/06/06 04:50:47;;;;;;;;;;;;;;;16.05;69.25;98448.41;1769668;80;22007;-88
2021/06/06 04:53:14;;;;;;;;;;;;;;;16.03;69.23;98451.69;1776832;80;26145;-87
2021/06/06 04:55:40;;;;;;;;;;;;;;;16.03;69.23;98453.49;1770864;80;24430;-85
2021/06/06 04:58:06;;;;;;;;;;;;;;;16.00;69.24;98451.12;1774790;80;20251;-85
2021/06/06 05:00:35;;;;;;;;;;;;;;;16.01;69.27;98458.06;1773429;80;24069;-86
2021/06/06 05:03:01;;;;;;;;;;;;;;;16.02;69.29;98456.61;1777116;80;22069;-86
2021/06/06 05:05:27;;;;;;;;;;;;;;;16.04;69.30;98453.33;1770746;80;26219;-86
2021/06/06 05:07:58;;;;;;;;;;;;;;;16.08;69.33;98458.70;1767588;80;24383;-86
2021/06/06 05:10:25;;;;;;;;;;;;;;;16.10;69.36;98459.37;1776030;80;20237;-86
2021/06/06 05:12:52;;;;;;;;;;;;;;;16.16;69.41;98462.77;1771929;80;24803;-86
2021/06/06 05:15:19;;;;;;;;;;;;;;;16.20;69.44;98463.34;1773921;80;22127;-86
2021/06/06 05:17:46;;;;;;;;;;;;;;;16.27;69.50;98464.41;1771915;80;26150;-86
2021/06/06 05:20:14;;;;;;;;;;;;;;;16.40;69.58;98462.80;1772686;80;24729;-86
2021/06/06 05:22:40;;;;;;;;;;;;;;;16.62;69.66;98462.49;1775672;80;20467;-87
2021/06/06 05:25:07;;;;;;;;;;;;;;;16.80;69.68;98461.25;1773570;80;20221;-89
2021/06/06 05:27:33;;;;;;;;;;;;;;;16.85;69.68;98459.84;1771691;80;21995;-88
2021/06/06 05:30:00;;;;;;;;;;;;;;;16.82;69.65;98464.08;1775187;80;26893;-89
2021/06/06 05:32:26;;;;;;;;;;;;;;;16.81;69.58;98469.02;1774721;80;24605;-90
2021/06/06 05:34:52;;;;;;;;;;;;;;;16.82;69.60;98465.40;1773948;80;20335;-89
2021/06/06 05:37:18;;;;;;;;;;;;;;;16.90;69.61;98466.00;1773231;80;24539;-89
2021/06/06 05:39:44;;;;;;;;;;;;;;;16.91;69.66;98464.52;1771193;80;21990;-89
2021/06/06 05:42:10;;;;;;;;;;;;;;;16.94;69.65;98473.98;1767660;80;26000;-87
2021/06/06 05:44:36;;;;;;;;;;;;;;;16.96;69.68;98474.19;1775476;80;24393;-88
2021/06/06 05:47:03;;;;;;;;;;;;;;;17.04;69.73;98470.31;1774264;80;20274;-86
2021/06/06 05:49:29;;;;;;;;;;;;;;;17.09;69.75;98477.31;1744378;80;24634;-89
2021/06/06 05:51:55;;;;;;;;;;;;;;;17.15;69.79;98482.02;1772365;80;21978;-86
2021/06/06 05:54:21;;;;;;;;;;;;;;;17.12;69.79;98481.00;1772894;79;25927;-89
2021/06/06 05:56:47;;;;;;;;;;;;;;;17.17;69.84;98482.36;1771343;80;24698;-88
2021/06/06 05:59:15;;;;;;;;;;;;;;;17.24;69.86;98487.41;1772307;80;20225;-88
2021/06/06 06:01:47;;;;;;;;;;;;;;;17.28;69.88;98486.13;1770057;80;25428;-87
2021/06/06 06:04:14;;;;;;;;;;;;;;;17.30;69.92;98486.80;1763698;80;22029;-87
2021/06/06 06:06:40;;;;;;;;;;;;;;;17.30;69.93;98482.34;1763407;80;25968;-87
2021/06/06 06:09:06;;;;;;;;;;;;;;;17.34;69.93;98487.70;1768409;80;24333;-87
2021/06/06 06:11:35;;;;;;;;;;;;;;;17.40;69.96;98477.02;1773925;80;20329;-88
2021/06/06 06:14:00;;;;;;;;;;;;;;;17.37;69.95;98483.91;1772157;80;24534;-88
2021/06/06 06:16:28;;;;;;;;;;;;;;;17.38;69.96;98478.97;1767475;79;21930;-88
2021/06/06 06:18:55;;;;;;;;;;;;;;;17.39;69.95;98479.31;1761542;80;26106;-88
2021/06/06 06:21:27;;;;;;;;;;;;;;;17.40;69.89;98480.98;1772255;80;24479;-88
2021/06/06 06:23:50;;;;;;;;;;;;;;;17.55;69.95;98476.84;1767026;80;20496;-88
2021/06/06 06:26:17;;;;;;;;;;;;;;;17.64;69.98;98479.94;1772740;80;24587;-88
2021/06/06 06:28:46;;;;;;;;;;;;;;;17.76;70.03;98482.70;1764820;80;21981;-88
2021/06/06 06:31:12;;;;;;;;;;;;;;;17.77;70.01;98476.92;1772576;80;26383;-87
2021/06/06 06:33:38;;;;;;;;;;;;;;;17.82;69.99;98483.92;1769346;80;24387;-88
2021/06/06 06:36:13;;;;;;;;;;;;;;;17.86;69.98;98486.59;1770676;80;20219;-89
2021/06/06 06:38:39;;;;;;;;;;;;;;;17.97;70.00;98487.20;1756526;80;24823;-89
2021/06/06 06:41:05;;;;;;;;;;;;;;;17.98;69.92;98489.36;1759573;80;20418;-88
2021/06/06 06:43:31;;;;;;;;;;;;;;;17.94;69.78;98490.16;1771850;80;27039;-88
2021/06/06 06:45:57;;;;;;;;;;;;;;;18.04;69.72;98491.89;1770587;80;20279;-85
2021/06/06 06:48:25;;;;;;;;;;;;;;;18.20;69.73;98493.34;1758550;80;20239;-87
2021/06/06 06:51:03;;;;;;;;;;;;;;;18.29;69.69;98484.47;1766266;80;24569;-90
2021/06/06 06:53:29;;;;;;;;;;;;;;;18.41;69.68;98485.89;1771552;80;22023;-89
2021/06/06 06:55:55;;;;;;;;;;;;;;;18.37;69.59;98488.52;1752672;80;21199;-89
2021/06/06 06:58:22;;;;;;;;;;;;;;;18.26;69.39;98488.77;1770971;80;20358;-89
2021/06/06 07:00:49;;;;;;;;;;;;;;;18.30;69.28;98486.13;1774405;80;20503;-89
2021/06/06 07:03:18;;;;;;;;;;;;;;;18.37;69.23;98489.35;1772089;80;24750;-88
2021/06/06 07:05:46;;;;;;;;;;;;;;;18.32;69.08;98486.83;1763944;80;21940;-87
2021/06/06 07:08:13;;;;;;;;;;;;;;;18.36;69.02;98485.03;1774497;80;26056;-87
2021/06/06 07:10:43;;;;;;;;;;;;;;;18.43;68.87;98492.37;1772526;80;24448;-88
2021/06/06 07:13:10;;;;;;;;;;;;;;;18.45;68.73;98494.34;1768899;80;20541;-87
2021/06/06 07:15:38;;;;;;;;;;;;;;;18.46;68.61;98491.55;1764915;80;24341;-87
2021/06/06 07:18:07;;;;;;;;;;;;;;;18.53;68.53;98483.81;1771495;80;21997;-87
2021/06/06 07:20:37;;;;;;;;;;;;;;;18.69;68.52;98486.11;1778130;80;26001;-89
2021/06/06 07:23:04;;;;;;;;;;;;;;;18.80;68.51;98487.66;1767763;80;24402;-87
2021/06/06 07:25:30;;;;;;;;;;;;;;;18.95;68.48;98482.59;1775313;80;20503;-89
2021/06/06 07:27:57;;;;;;;;;;;;;;;19.09;68.47;98475.38;1771015;80;24816;-87
2021/06/06 07:30:24;;;;;;;;;;;;;;;19.20;68.45;98474.56;1767608;80;21938;-86
2021/06/06 07:32:51;;;;;;;;;;;;;;;19.27;68.38;98476.08;1767736;80;26056;-88
2021/06/06 07:35:17;;;;;;;;;;;;;;;19.29;68.23;98479.91;1772567;80;24421;-86
2021/06/06 07:37:43;;;;;;;;;;;;;;;19.32;68.13;98481.73;1772772;80;20282;-88
2021/06/06 07:40:11;;;;;;;;;;;;;;;19.37;68.05;98480.75;1771290;80;20494;-86
2021/06/06 07:42:45;;;;;;;;;;;;;;;19.46;67.99;98475.02;1768394;80;21976;-88
2021/06/06 07:45:12;;;;;;;;;;;;;;;19.49;67.91;98474.69;1772771;80;26156;-89
2021/06/06 07:47:44;;;;;;;;;;;;;;;19.52;67.74;98479.69;1770774;80;24441;-86
2021/06/06 07:50:12;;;;;;;;;;;;;;;19.64;67.70;98479.20;1772250;80;20317;-88
2021/06/06 07:52:38;;;;;;;;;;;;;;;19.76;67.64;98482.38;1771116;80;24801;-89
2021/06/06 07:55:05;;;;;;;;;;;;;;;19.89;67.57;98480.58;1775312;80;21904;-88
2021/06/06 07:57:41;;;;;;;;;;;;;;;20.07;67.57;98481.75;1771811;80;26868;-89
2021/06/06 08:00:11;;;;;;;;;;;;;;;20.16;67.51;98487.39;1774954;80;24383;-88
2021/06/06 08:02:37;;;;;;;;;;;;;;;20.23;67.34;98485.24;1774527;79;20250;-89
2021/06/06 08:05:05;;;;;;;;;;;;;;;20.34;67.23;98479.63;1756970;80;20364;-87
2021/06/06 08:07:31;;;;;;;;;;;;;;;20.37;66.98;98481.94;1773780;80;21982;-88
2021/06/06 08:10:00;;;;;;;;;;;;;;;20.48;66.85;98471.95;1769127;80;21156;-88
2021/06/06 08:12:26;;;;;;;;;;;;;;;20.62;66.76;98473.41;1773895;80;24683;-88
2021/06/06 08:14:53;;;;;;;;;;;;;;;20.70;66.50;98469.91;1771754;80;20284;-88
2021/06/06 08:17:19;;;;;;;;;;;;;;;20.71;66.11;98473.73;1769364;80;24913;-88
2021/06/06 08:19:45;;;;;;;;;;;;;;;20.79;65.86;98472.87;1771390;80;20294;-86
2021/06/06 08:22:14;;;;;;;;;;;;;;;20.84;65.46;98470.52;1773592;80;26048;-87
2021/06/06 08:24:54;;;;;;;;;;;;;;;20.87;65.16;98472.86;1768648;80;24537;-87
2021/06/06 08:27:20;;;;;;;;;;;;;;;20.83;64.76;98467.56;1728462;82;20283;-87
2021/06/06 08:29:52;;;;;;;;;;;;;;;20.83;64.45;98470.22;1725288;82;24845;-87
2021/06/06 08:32:18;;;;;;;;;;;;;;;20.93;64.33;98464.70;1722632;82;21981;-89
2021/06/06 08:34:44;;;;;;;;;;;;;;;20.95;64.01;98462.70;1730797;82;21129;-88
2021/06/06 08:37:10;;;;;;;;;;;;;;;21.04;63.89;98454.51;1722601;81;24420;-91
2021/06/06 08:39:37;;;;;;;;;;;;;;;21.14;63.74;98457.82;1717573;82;20438;-89
2021/06/06 08:42:11;;;;;;;;;;;;;;;21.13;63.33;98453.95;1735193;82;24804;-86
2021/06/06 08:44:45;;;;;;;;;;;;;;;21.20;62.92;98458.95;1718497;82;22917;-88
2021/06/06 08:47:14;;;;;;;;;;;;;;;21.31;62.65;98463.89;1729875;82;25985;-88
2021/06/06 08:49:46;;;;;;;;;;;;;;;21.41;62.39;98462.34;1727779;82;24460;-87
2021/06/06 08:52:13;;;;;;;;;;;;;;;21.49;62.22;98459.12;1735090;82;20265;-87
2021/06/06 08:54:44;;;;;;;;;;;;;;;21.59;61.94;98462.91;1727930;82;24897;-86
2021/06/06 08:57:12;;;;;;;;;;;;;;;21.63;61.58;98466.38;1731060;82;22228;-86
2021/06/06 08:59:48;;;;;;;;;;;;;;;21.73;61.31;98470.63;1724141;82;25996;-86
2021/06/06 09:02:15;;;;;;;;;;;;;;;21.78;60.94;98466.43;1727721;82;24431;-88
2021/06/06 09:04:43;;;;;;;;;;;;;;;21.80;60.45;98459.61;1729809;82;20179;-88
2021/06/06 09:07:14;;;;;;;;;;;;;;;21.85;60.07;98459.40;1731545;82;24844;-87
2021/06/06 09:09:47;;;;;;;;;;;;;;;21.88;59.60;98462.20;1730017;82;21923;-89
2021/06/06 09:12:23;;;;;;;;;;;;;;;21.85;59.17;98461.23;1707619;82;23578;-89
2021/06/06 09:14:50;;;;;;;;;;;;;;;21.91;58.92;98469.35;1718658;82;24507;-84
2021/06/06 09:17:18;;;;;;;;;;;;;;;21.94;58.73;98468.15;1731600;81;20350;-84
2021/06/06 09:19:45;;;;;;;;;;;;;;;21.94;58.55;98470.34;1727818;82;24740;-86
2021/06/06 09:22:31;;;;;;;;;;;;;;;21.96;58.33;98463.02;1732519;82;22060;-87
2021/06/06 09:25:08;;;;;;;;;;;;;;;21.92;58.00;98471.02;1722569;82;26029;-85
2021/06/06 09:27:34;;;;;;;;;;;;;;;21.92;57.73;98465.69;1729363;82;25198;-85
2021/06/06 09:30:16;;;;;;;;;;;;;;;21.91;57.56;98468.52;1768052;80;20484;-85
2021/06/06 09:32:43;;;;;;;;;;;;;;;21.96;57.49;98464.34;1758124;80;24868;-85
2021/06/06 09:35:17;;;;;;;;;;;;;;;22.08;57.58;98464.75;1738113;79;21536;-85
2021/06/06 09:37:45;;;;;;;;;;;;;;;22.24;57.60;98468.62;1770232;80;26036;-86
2021/06/06 09:40:35;;;;;;;;;;;;;;;22.33;57.41;98467.52;1776269;80;24661;-86
2021/06/06 09:43:02;;;;;;;;;;;;;;;22.37;57.19;98462.14;1772542;80;20317;-88
2021/06/06 09:45:32;;;;;;;;;;;;;;;22.39;56.88;98461.47;1776419;80;24681;-88
2021/06/06 09:48:06;;;;;;;;;;;;;;;22.42;56.65;98461.63;1771464;80;22061;-87
2021/06/06 09:50:34;;;;;;;;;;;;;;;22.40;56.29;98466.30;1768498;79;26043;-88
2021/06/06 09:53:17;;;;;;;;;;;;;;;22.37;55.88;98466.65;1773059;80;25097;-89
2021/06/06 09:55:44;;;;;;;;;;;;;;;22.35;55.58;98458.02;1769074;80;20365;-88
2021/06/06 09:58:12;;;;;;;;;;;;;;;22.34;55.26;98460.36;1770105;80;24749;-88
2021/06/06 10:00:40;;;;;;;;;;;;;;;22.36;55.00;98461.02;1768329;80;22022;-88
2021/06/06 10:03:08;;;;;;;;;;;;;;;22.44;54.87;98452.92;1696058;84;26852;-88
2021/06/06 10:05:39;;;;;;;;;;;;;;;22.51;54.64;98461.86;1682560;84;24427;-88
2021/06/06 10:08:07;;;;;;;;;;;;;;;22.57;54.41;98459.80;1706977;82;20476;-88
2021/06/06 10:10:41;;;;;;;;;;;;;;;22.70;54.29;98456.48;1724021;82;24791;-88
2021/06/06 10:13:09;;;;;;;;;;;;;;;22.73;54.03;98461.50;1697063;83;22170;-88
2021/06/06 10:15:42;;;;;;;;;;;;;;;22.77;53.81;98452.11;1714500;82;26059;-88
2021/06/06 10:18:13;;;;;;;;;;;;;;;22.84;53.71;98448.53;1710235;84;24443;-88
2021/06/06 10:20:41;;;;;;;;;;;;;;;22.90;53.48;98456.31;1711323;83;20212;-89
2021/06/06 10:23:12;;;;;;;;;;;;;;;22.85;53.08;98446.19;1691697;83;24731;-88
2021/06/06 10:25:43;;;;;;;;;;;;;;;22.89;52.90;98446.14;1697776;82;22250;-89
2021/06/06 10:28:10;;;;;;;;;;;;;;;22.89;52.58;98449.31;1739272;81;26645;-89
2021/06/06 10:30:38;;;;;;;;;;;;;;;22.88;52.31;98445.81;1706426;83;24472;-89
2021/06/06 10:33:24;;;;;;;;;;;;;;;22.86;51.93;98446.48;1772643;80;20239;-89
2021/06/06 10:35:51;;;;;;;;;;;;;;;22.77;51.54;98440.93;1771371;80;24861;-89
2021/06/06 10:38:19;;;;;;;;;;;;;;;22.74;51.28;98445.31;1778101;80;22141;-89
2021/06/06 10:40:46;;;;;;;;;;;;;;;22.74;51.03;98441.31;1776242;80;26109;-89
2021/06/06 10:43:14;;;;;;;;;;;;;;;22.69;50.77;98443.67;1762171;80;24360;-89
2021/06/06 10:45:54;;;;;;;;;;;;;;;22.71;50.67;98440.33;1773424;80;20177;-89
2021/06/06 10:48:26;;;;;;;;;;;;;;;22.79;50.71;98434.09;1770946;80;25632;-89
2021/06/06 10:50:54;;;;;;;;;;;;;;;22.91;50.65;98441.95;1773290;80;22069;-89
2021/06/06 10:53:22;;;;;;;;;;;;;;;22.87;50.23;98437.98;1757725;80;26140;-89
2021/06/06 10:55:56;;;;;;;;;;;;;;;22.85;49.96;98434.19;1772084;80;24406;-86
2021/06/06 10:58:30;;;;;;;;;;;;;;;22.83;49.73;98432.19;1771306;78;20222;-85
2021/06/06 11:00:58;;;;;;;;;;;;;;;22.90;49.67;98430.45;1764889;80;25514;-85
2021/06/06 11:03:26;;;;;;;;;;;;;;;22.98;49.61;98428.67;1757272;80;21853;-86
2021/06/06 11:05:58;;;;;;;;;;;;;;;23.06;49.51;98432.09;1770101;80;26051;-85
2021/06/06 11:08:30;;;;;;;;;;;;;;;23.17;49.59;98428.94;1772268;80;24598;-85
2021/06/06 11:10:58;;;;;;;;;;;;;;;23.26;49.54;98429.65;1776004;80;20224;-88
2021/06/06 11:13:32;;;;;;;;;;;;;;;23.30;49.37;98424.24;1768522;80;24779;-88
2021/06/06 11:16:00;;;;;;;;;;;;;;;23.30;49.11;98417.06;1773602;80;22797;-88
2021/06/06 11:18:27;;;;;;;;;;;;;;;23.36;48.90;98422.16;1770745;80;26042;-89
2021/06/06 11:20:56;;;;;;;;;;;;;;;23.40;48.73;98416.78;1749910;80;24364;-88
2021/06/06 11:23:36;;;;;;;;;;;;;;;23.46;48.52;98420.04;1751508;80;20312;-85
2021/06/06 11:26:12;;;;;;;;;;;;;;;23.47;48.17;98415.02;1774679;79;24829;-87
2021/06/06 11:28:38;;;;;;;;;;;;;;;23.48;47.83;98413.18;1767363;80;21973;-88
2021/06/06 11:31:07;;;;;;;;;;;;;;;23.55;47.62;98416.25;1772238;80;26203;-90
2021/06/06 11:33:49;;;;;;;;;;;;;;;23.54;47.19;98413.25;1768836;80;24778;-87
2021/06/06 11:36:16;;;;;;;;;;;;;;;23.53;46.78;98412.94;1740096;80;20253;-87
2021/06/06 11:38:47;;;;;;;;;;;;;;;23.60;46.41;98411.16;1698957;83;24777;-89
2021/06/06 11:41:29;;;;;;;;;;;;;;;23.70;46.32;98413.52;1693829;83;22147;-88
2021/06/06 11:43:57;;;;;;;;;;;;;;;23.65;45.86;98410.59;1771119;80;25984;-87
2021/06/06 11:46:32;;;;;;;;;;;;;;;23.65;45.70;98402.57;1770773;80;24477;-88
2021/06/06 11:49:16;;;;;;;;;;;;;;;23.72;45.66;98403.47;1770810;80;20415;-89
2021/06/06 11:51:49;;;;;;;;;;;;;;;23.71;45.39;98415.17;1769682;80;24952;-88
2021/06/06 11:54:32;;;;;;;;;;;;;;;23.66;44.83;98405.06;1771983;80;22214;-87
2021/06/06 11:57:02;;;;;;;;;;;;;;;23.63;44.26;98405.42;1774672;80;25946;-84
2021/06/06 11:59:49;;;;;;;;;;;;;;;23.63;43.86;98399.25;1769274;79;20673;-87
2021/06/06 12:02:16;;;;;;;;;;;;;;;23.59;43.51;98398.81;1774612;79;20247;-87
2021/06/06 12:04:42;;;;;;;;;;;;;;;23.60;43.24;98395.13;1767907;78;24915;-88
2021/06/06 12:07:16;;;;;;;;;;;;;;;23.65;43.08;98388.70;1767519;80;21872;-84
2021/06/06 12:09:43;;;;;;;;;;;;;;;23.67;42.95;98384.52;1767235;80;26751;-88
2021/06/06 12:12:22;;;;;;;;;;;;;;;23.71;42.89;98376.42;1772502;80;24671;-88
2021/06/06 12:14:47;;;;;;;;;;;;;;;23.75;42.62;98387.05;1770718;80;20622;-88
2021/06/06 12:17:21;;;;;;;;;;;;;;;23.78;42.50;98383.17;1767406;79;24737;-85
2021/06/06 12:20:06;;;;;;;;;;;;;;;23.81;42.25;98382.77;1760224;79;22124;-87
2021/06/06 12:22:41;;;;;;;;;;;;;;;23.90;42.06;98380.27;1738287;81;26828;-88
2021/06/06 12:25:11;;;;;;;;;;;;;;;23.93;41.55;98383.41;1696626;83;24416;-88
2021/06/06 12:27:45;;;;;;;;;;;;;;;23.95;41.46;98377.34;1688210;83;20270;-88
2021/06/06 12:30:21;;;;;;;;;;;;;;;24.01;41.39;98373.89;1767551;80;24833;-88
2021/06/06 12:33:00;;;;;;;;;;;;;;;24.08;41.61;98384.64;1770018;80;21992;-88
2021/06/06 12:35:28;;;;;;;;;;;;;;;24.08;41.83;98373.95;1771050;80;26145;-88
2021/06/06 12:37:59;;;;;;;;;;;;;;;24.06;41.65;98378.66;1765550;80;24495;-85
2021/06/06 12:40:26;;;;;;;;;;;;;;;24.11;41.71;98379.73;1769684;80;20215;-89
2021/06/06 12:42:57;;;;;;;;;;;;;;;24.15;41.62;98382.86;1773420;80;26010;-89
2021/06/06 12:45:24;;;;;;;;;;;;;;;24.22;41.69;98379.73;1771137;80;22005;-85
2021/06/06 12:47:52;;;;;;;;;;;;;;;24.28;41.57;98382.97;1773293;80;25963;-88
2021/06/06 12:50:19;;;;;;;;;;;;;;;24.31;41.44;98383.94;1763765;80;24478;-88
2021/06/06 12:52:52;;;;;;;;;;;;;;;24.30;41.37;98376.92;1771751;80;20242;-85
2021/06/06 12:55:26;;;;;;;;;;;;;;;24.37;41.44;98378.31;1778649;80;24941;-88
2021/06/06 12:58:01;;;;;;;;;;;;;;;24.33;41.28;98377.86;1774217;80;22783;-88
2021/06/06 13:00:26;;;;;;;;;;;;;;;24.24;41.14;98381.72;1778806;80;25991;-88